Terminal Aerodrome Forecast
Issued by NWS

Home | Current Version | Previous Version | Graphics & Text | Print | Product List | Glossary On
Versions: 1 2 3 4 5 6 7 8 9 10 11 12 13 14 15 16 17 18 19 20 21 22
725
FTUS43 KBIS 310108 AAA
TAFJMS
TAF AMD
KJMS 310108Z 3101/3124 06021G29KT P6SM -SHRA FEW045 BKN100
     FM310200 02012KT P6SM -SHRA VCTS OVC080CB
      TEMPO 3102/3104 4SM TSRA OVC040CB
     FM310400 36008KT P6SM VCTS BKN050CB
     FM310600 16010KT P6SM OVC035
     FM310800 26013KT P6SM BKN025
     FM311200 26012KT P6SM SCT110=

USA.gov is the U.S. government's official web portal to all federal, state and local government web resources and services.